KGLW/GLW METAR and TAF weather

Enter ICAO airport designator
Station Type Date Time Source
KGLW METAR 2022/01/23 12:15 UTC NOAA

KGLW 231215Z AUTO 00000KT 10SM CLR M06/M09 A3008 RMK AO2 T10571089


Station Type Date Time Source
KGLW Decoded METAR 2022/01/23 12:15 UTC NOAA

Glasgow, Glasgow Municipal Airport, KY, United States (KGLW) 37-01-54N 085-57-13W
Jan 23, 2022 - 07:15 AM EST / 2022.01.23 1215 UTC
Wind: Calm:0
Visibility: 10 mile(s):0
Sky conditions: clear
Temperature: 21.7 F (-5.7 C)
Dew Point: 16.0 F (-8.9 C)
Relative Humidity: 78%
Pressure (altimeter): 30.08 in. Hg (1018 hPa)
ob: KGLW 231215Z AUTO 00000KT 10SM CLR M06/M09 A3008 RMK AO2 T10571089
cycle: 12

Station Type Date Time Source
KGLW TAF UTC NOAA

Error!

Example: see airport list